Time;durP1;ratioP1;P1;durP2;ratioP2;P2;SDS_P1;SDS_P2;PMS_P1;PMS_P2;Temp;Humidity;BMP_temperature;BMP_pressure;BME280_temperature;BME280_humidity;BME280_pressure;Samples;Min_cycle;Max_cycle;Signal;HPM_P1;HPM_P2
2023/09/09 00:00:30;;;;;;;14.55;12.90;;;;;;;18.97;100.00;101760.88;5030030;28;20026;-75
2023/09/09 00:02:55;;;;;;;15.65;14.07;;;;;;;19.04;100.00;101771.69;5030572;28;20029;-75
2023/09/09 00:05:21;;;;;;;15.00;13.18;;;;;;;19.01;100.00;101764.84;5030284;28;20081;-75
2023/09/09 00:07:46;;;;;;;15.48;13.77;;;;;;;19.01;100.00;101764.84;5031747;28;20033;-75
2023/09/09 00:10:12;;;;;;;15.55;13.90;;;;;;;18.97;100.00;101752.69;5030358;28;20029;-75
2023/09/09 00:12:37;;;;;;;16.45;14.77;;;;;;;19.02;100.00;101764.59;5016327;28;20037;-75
2023/09/09 00:15:05;;;;;;;15.57;14.07;;;;;;;19.01;100.00;101768.38;5019124;28;20195;-75
2023/09/09 00:17:31;;;;;;;17.60;13.93;;;;;;;18.98;100.00;101763.41;5019919;28;20025;-75
2023/09/09 00:19:56;;;;;;;15.15;13.60;;;;;;;18.96;100.00;101764.69;5032806;28;20070;-75
2023/09/09 00:22:22;;;;;;;14.52;13.02;;;;;;;18.93;100.00;101765.16;5035738;28;20155;-75
2023/09/09 00:24:47;;;;;;;16.58;12.90;;;;;;;18.90;100.00;101760.97;5034762;28;20025;-75
2023/09/09 00:27:13;;;;;;;14.95;13.02;;;;;;;18.81;100.00;101772.44;5035545;28;20044;-76
2023/09/09 00:29:38;;;;;;;14.15;12.68;;;;;;;18.74;100.00;101773.38;5017758;28;20038;-75
2023/09/09 00:32:04;;;;;;;14.38;12.88;;;;;;;18.70;100.00;101769.41;5018196;28;20065;-76
2023/09/09 00:34:29;;;;;;;16.23;13.10;;;;;;;18.67;100.00;101764.41;5034359;28;20029;-75
2023/09/09 00:36:55;;;;;;;15.25;13.77;;;;;;;18.67;100.00;101769.84;5033965;28;20026;-75
2023/09/09 00:39:20;;;;;;;16.90;15.00;;;;;;;18.65;100.00;101766.53;5035201;28;20094;-75
2023/09/09 00:41:46;;;;;;;14.88;13.30;;;;;;;18.68;100.00;101767.97;5033840;28;20506;-75
2023/09/09 00:44:11;;;;;;;14.65;13.07;;;;;;;18.63;100.00;101770.56;5000745;28;20030;-75
2023/09/09 00:46:37;;;;;;;17.77;13.90;;;;;;;18.59;100.00;101762.00;5017118;28;20037;-75
2023/09/09 00:49:03;;;;;;;16.75;15.02;;;;;;;18.58;100.00;101759.53;5018974;28;20573;-75
2023/09/09 00:51:29;;;;;;;17.17;15.38;;;;;;;18.49;100.00;101743.47;5035287;28;20083;-75
2023/09/09 00:53:55;;;;;;;16.80;15.30;;;;;;;18.53;100.00;101741.09;5035290;28;20053;-75
2023/09/09 00:56:20;;;;;;;18.98;15.95;;;;;;;18.60;100.00;101747.31;5035844;28;20060;-75
2023/09/09 00:58:46;;;;;;;18.17;15.63;;;;;;;18.55;100.00;101741.72;5021106;28;20101;-75
2023/09/09 01:01:11;;;;;;;18.23;16.33;;;;;;;18.52;100.00;101748.47;5033818;28;20034;-75
2023/09/09 01:03:37;;;;;;;17.38;15.57;;;;;;;18.58;100.00;101754.91;5033745;28;20029;-75
2023/09/09 01:06:03;;;;;;;17.17;15.48;;;;;;;18.60;100.00;101752.75;5016987;28;20140;-75
2023/09/09 01:08:30;;;;;;;18.17;15.95;;;;;;;18.62;100.00;101747.09;5033174;28;20037;-75
2023/09/09 01:10:57;;;;;;;18.33;16.50;;;;;;;18.64;100.00;101750.41;5034873;28;20431;-76
2023/09/09 01:13:22;;;;;;;18.42;16.52;;;;;;;18.61;100.00;101740.81;5033184;28;20084;-75
2023/09/09 01:15:49;;;;;;;18.13;16.25;;;;;;;18.51;100.00;101746.81;5034311;28;20056;-75
2023/09/09 01:18:15;;;;;;;17.60;15.80;;;;;;;18.48;100.00;101722.72;5034309;28;20083;-75
2023/09/09 01:20:46;;;;;;;17.25;15.38;;;;;;;18.51;100.00;101725.00;5033074;28;20048;-75
2023/09/09 01:23:11;;;;;;;17.92;15.15;;;;;;;18.61;100.00;101751.72;5034690;28;20017;-75
2023/09/09 01:25:36;;;;;;;17.90;15.00;;;;;;;18.63;100.00;101751.47;5033258;28;20041;-75
2023/09/09 01:28:02;;;;;;;18.38;15.93;;;;;;;18.62;100.00;101744.38;5033051;28;20061;-75
2023/09/09 01:30:28;;;;;;;19.38;15.70;;;;;;;18.61;100.00;101740.81;5034446;28;20075;-75
2023/09/09 01:32:53;;;;;;;17.08;14.88;;;;;;;18.58;100.00;101735.81;5031846;28;20025;-76
2023/09/09 01:35:18;;;;;;;19.23;16.48;;;;;;;18.56;100.00;101732.47;5032864;28;20044;-75
2023/09/09 01:37:44;;;;;;;17.88;16.13;;;;;;;18.55;100.00;101736.28;5032957;28;20079;-75
2023/09/09 01:40:12;;;;;;;17.45;15.57;;;;;;;18.53;100.00;101732.94;5034205;28;20119;-75
2023/09/09 01:42:38;;;;;;;17.05;14.95;;;;;;;18.49;100.00;101731.72;5016799;28;20029;-75
2023/09/09 01:45:04;;;;;;;17.90;15.25;;;;;;;18.46;100.00;101738.47;5034062;28;20099;-75
2023/09/09 01:47:30;;;;;;;18.08;15.32;;;;;;;18.40;100.00;101724.94;5032142;28;20516;-75
2023/09/09 01:49:55;;;;;;;19.45;16.33;;;;;;;18.37;100.00;101730.84;5016156;28;20040;-75
2023/09/09 01:52:21;;;;;;;17.65;15.95;;;;;;;18.40;100.00;101731.19;5032459;28;20049;-75
2023/09/09 01:54:46;;;;;;;17.40;15.45;;;;;;;18.40;100.00;101727.66;5032230;28;20036;-75
2023/09/09 01:57:13;;;;;;;17.38;15.40;;;;;;;18.38;100.00;101724.34;5031966;28;20026;-75
2023/09/09 01:59:39;;;;;;;19.00;16.58;;;;;;;18.31;100.00;101718.97;5033753;28;20021;-75
2023/09/09 02:02:06;;;;;;;19.92;17.08;;;;;;;18.28;100.00;101714.81;5032234;28;20044;-75
2023/09/09 02:04:31;;;;;;;18.20;16.30;;;;;;;18.27;100.00;101718.56;5032138;28;20025;-75
2023/09/09 02:06:57;;;;;;;19.40;17.52;;;;;;;18.23;100.00;101711.91;5032234;28;20038;-75
2023/09/09 02:09:22;;;;;;;17.73;15.82;;;;;;;18.26;100.00;101716.91;5015477;28;20072;-75
2023/09/09 02:11:48;;;;;;;17.40;15.68;;;;;;;18.25;100.00;101715.25;5033093;28;20037;-75
2023/09/09 02:14:13;;;;;;;19.23;17.23;;;;;;;18.24;100.00;101710.84;5019319;28;20030;-75
2023/09/09 02:16:38;;;;;;;18.63;16.55;;;;;;;18.25;100.00;101717.16;5032239;28;20406;-75
2023/09/09 02:19:04;;;;;;;19.48;17.58;;;;;;;18.24;100.00;101710.03;5033469;28;20110;-75
2023/09/09 02:21:29;;;;;;;19.27;17.25;;;;;;;18.24;100.00;101721.75;5032049;28;20164;-75
2023/09/09 02:23:55;;;;;;;19.67;17.38;;;;;;;18.24;100.00;101724.47;5031986;28;20064;-75
2023/09/09 02:26:20;;;;;;;19.00;16.80;;;;;;;18.28;100.00;101716.69;5031793;28;20029;-75
2023/09/09 02:28:46;;;;;;;19.45;16.13;;;;;;;18.19;100.00;101704.44;5031974;28;20033;-75
2023/09/09 02:31:11;;;;;;;18.35;14.82;;;;;;;18.29;100.00;101719.19;5033740;28;20484;-75
2023/09/09 02:33:37;;;;;;;15.57;14.07;;;;;;;18.32;100.00;101715.19;5031898;28;20392;-75
2023/09/09 02:36:03;;;;;;;16.15;14.55;;;;;;;18.34;100.00;101707.59;5031992;28;20034;-75
2023/09/09 02:38:28;;;;;;;15.82;14.27;;;;;;;18.38;100.00;101702.53;5031935;28;20034;-75
2023/09/09 02:40:54;;;;;;;16.23;14.43;;;;;;;18.38;100.00;101708.81;5032491;28;20025;-75
2023/09/09 02:43:19;;;;;;;16.33;14.00;;;;;;;18.31;100.00;101695.28;5048104;28;20044;-75
2023/09/09 02:45:44;;;;;;;15.38;13.77;;;;;;;18.39;100.00;101698.75;5053653;28;20516;-76
2023/09/09 02:48:10;;;;;;;15.05;13.55;;;;;;;18.24;100.00;101678.16;5055223;28;20028;-75
2023/09/09 02:50:36;;;;;;;15.40;13.50;;;;;;;18.32;100.00;101690.66;5035833;28;20498;-75
2023/09/09 02:53:01;;;;;;;15.10;13.60;;;;;;;18.26;100.00;101676.03;5032502;28;20075;-75
2023/09/09 02:55:27;;;;;;;16.02;14.32;;;;;;;18.36;100.00;101689.13;5019220;28;20029;-75
2023/09/09 02:57:52;;;;;;;14.73;13.32;;;;;;;18.36;100.00;101677.41;5034330;28;20041;-75
2023/09/09 03:00:18;;;;;;;16.10;14.50;;;;;;;18.26;100.00;101675.22;5030924;28;20025;-75
2023/09/09 03:02:43;;;;;;;15.05;13.60;;;;;;;18.29;100.00;101683.75;5014340;28;20041;-75
2023/09/09 03:05:09;;;;;;;16.30;14.55;;;;;;;18.31;100.00;101675.38;5030830;28;20075;-75
2023/09/09 03:07:35;;;;;;;16.08;14.48;;;;;;;18.27;100.00;101680.44;5032108;28;20022;-75
2023/09/09 03:10:00;;;;;;;16.15;14.32;;;;;;;18.33;100.00;101677.84;5032460;28;20396;-75
2023/09/09 03:12:26;;;;;;;16.58;14.98;;;;;;;18.32;100.00;101677.03;5014535;28;20408;-75
2023/09/09 03:14:51;;;;;;;16.45;14.85;;;;;;;18.28;100.00;101673.94;5032434;28;20048;-75
2023/09/09 03:17:18;;;;;;;17.25;15.60;;;;;;;18.28;100.00;101675.84;5031753;28;20029;-75
2023/09/09 03:19:43;;;;;;;18.52;15.68;;;;;;;18.23;100.00;101673.78;5030941;28;20021;-75
2023/09/09 03:22:09;;;;;;;17.65;15.40;;;;;;;18.23;100.00;101679.22;5031947;28;20090;-75
2023/09/09 03:24:34;;;;;;;17.23;15.48;;;;;;;18.22;100.00;101682.19;5031121;28;20115;-75
2023/09/09 03:27:00;;;;;;;18.77;16.60;;;;;;;18.22;100.00;101684.91;5032005;28;20044;-75
2023/09/09 03:29:26;;;;;;;17.85;16.15;;;;;;;18.18;100.00;101681.81;5031651;28;20041;-75
2023/09/09 03:31:51;;;;;;;18.77;16.52;;;;;;;18.16;100.00;101683.09;5031016;28;20028;-74
2023/09/09 03:34:17;;;;;;;18.05;16.20;;;;;;;18.15;100.00;101678.72;5030534;28;20037;-75
2023/09/09 03:36:42;;;;;;;18.38;16.42;;;;;;;18.15;100.00;101676.00;5014009;28;20037;-74
2023/09/09 03:39:08;;;;;;;19.95;17.17;;;;;;;18.14;100.00;101675.16;5030355;28;20448;-75
2023/09/09 03:41:34;;;;;;;19.10;17.05;;;;;;;18.13;100.00;101669.94;5013936;28;20045;-74
2023/09/09 03:43:59;;;;;;;18.27;16.35;;;;;;;18.03;100.00;101645.97;5030492;28;20034;-75
2023/09/09 03:46:25;;;;;;;18.38;16.55;;;;;;;18.10;100.00;101662.22;5030089;28;20392;-75
2023/09/09 03:48:50;;;;;;;17.92;16.13;;;;;;;18.08;100.00;101659.75;5030163;28;20065;-75
2023/09/09 03:51:16;;;;;;;18.98;16.98;;;;;;;18.08;100.00;101663.28;4997008;28;20124;-74
2023/09/09 03:53:42;;;;;;;18.25;16.55;;;;;;;18.10;100.00;101657.59;5030105;28;20040;-75
2023/09/09 03:56:07;;;;;;;18.55;16.77;;;;;;;18.11;100.00;101652.97;5029345;28;20029;-75
2023/09/09 03:58:33;;;;;;;18.60;16.80;;;;;;;18.14;100.00;101650.63;5013181;28;20480;-74
2023/09/09 04:01:04;;;;;;;19.52;17.52;;;;;;;18.16;100.00;101651.25;4997211;28;20512;-75
2023/09/09 04:03:33;;;;;;;18.70;16.90;;;;;;;18.07;100.00;101630.81;5032263;28;20078;-75
2023/09/09 04:05:58;;;;;;;19.02;17.02;;;;;;;18.18;100.00;101643.69;5030276;28;20033;-74
2023/09/09 04:08:24;;;;;;;19.00;16.98;;;;;;;17.96;100.00;101602.47;5029658;28;20404;-75
2023/09/09 04:10:49;;;;;;;18.88;16.98;;;;;;;18.20;100.00;101646.16;5030053;28;20392;-75
2023/09/09 04:13:15;;;;;;;18.42;16.60;;;;;;;18.21;100.00;101642.38;5030381;28;20041;-75
2023/09/09 04:15:41;;;;;;;18.67;16.88;;;;;;;18.21;100.00;101643.22;5031400;28;20487;-75
2023/09/09 04:18:06;;;;;;;18.15;16.38;;;;;;;18.20;100.00;101638.81;5032237;28;20056;-74
2023/09/09 04:20:32;;;;;;;18.42;16.23;;;;;;;18.24;100.00;101641.91;5031602;28;20030;-74
2023/09/09 04:22:57;;;;;;;20.90;16.77;;;;;;;18.23;100.00;101635.63;5029983;28;20036;-74
2023/09/09 04:25:23;;;;;;;19.35;17.38;;;;;;;18.22;100.00;101635.88;5031049;28;20519;-74
2023/09/09 04:27:48;;;;;;;19.35;17.13;;;;;;;18.24;100.00;101633.75;5030730;28;20033;-75
2023/09/09 04:30:14;;;;;;;18.90;16.77;;;;;;;18.18;100.00;101635.50;5013672;28;20033;-74
2023/09/09 04:32:39;;;;;;;19.73;17.08;;;;;;;18.20;100.00;101635.28;5030149;28;20052;-75
2023/09/09 04:35:05;;;;;;;18.63;16.83;;;;;;;18.24;100.00;101634.56;5042394;28;20037;-75
2023/09/09 04:37:30;;;;;;;18.95;17.15;;;;;;;18.26;100.00;101637.91;5052944;28;20094;-75
2023/09/09 04:39:56;;;;;;;19.50;17.50;;;;;;;18.24;100.00;101631.84;5036942;28;20021;-75
2023/09/09 04:42:21;;;;;;;18.20;16.25;;;;;;;18.26;100.00;101637.09;5031245;28;20408;-74
2023/09/09 04:44:46;;;;;;;20.35;17.20;;;;;;;18.26;100.00;101626.19;5029601;28;20029;-74
2023/09/09 04:47:12;;;;;;;19.50;17.42;;;;;;;18.30;100.00;101625.47;5029628;28;20030;-75
2023/09/09 04:49:37;;;;;;;22.85;18.08;;;;;;;18.34;100.00;101628.56;5029723;28;20515;-75
2023/09/09 04:52:03;;;;;;;19.02;17.13;;;;;;;18.35;100.00;101616.63;5030634;28;20508;-75
2023/09/09 04:54:28;;;;;;;19.48;17.42;;;;;;;18.45;100.00;101624.25;5029711;28;20037;-75
2023/09/09 04:56:54;;;;;;;20.02;16.73;;;;;;;18.44;100.00;101611.66;5013480;28;20035;-75
2023/09/09 04:59:20;;;;;;;22.23;17.30;;;;;;;18.48;100.00;101602.81;5046114;28;20399;-75
2023/09/09 05:01:45;;;;;;;19.05;16.40;;;;;;;18.69;100.00;101623.25;5031429;28;20443;-75
2023/09/09 05:04:11;;;;;;;18.73;16.83;;;;;;;18.85;100.00;101623.69;5030847;28;20117;-75
2023/09/09 05:06:36;;;;;;;20.25;16.33;;;;;;;18.87;100.00;101616.91;5047342;28;20132;-75
2023/09/09 05:09:02;;;;;;;18.10;16.20;;;;;;;18.96;100.00;101620.13;5016817;28;20131;-75
2023/09/09 05:11:27;;;;;;;18.38;15.27;;;;;;;18.99;100.00;101623.22;5033455;28;20029;-75
2023/09/09 05:13:53;;;;;;;19.38;15.20;;;;;;;19.03;100.00;101629.03;5035411;28;20103;-74
2023/09/09 05:16:19;;;;;;;17.75;14.30;;;;;;;19.09;100.00;101625.38;5033393;28;20408;-74
2023/09/09 05:18:44;;;;;;;17.33;14.20;;;;;;;19.20;100.00;101623.72;5034457;28;20063;-75
2023/09/09 05:21:10;;;;;;;15.98;13.52;;;;;;;19.16;100.00;101606.97;5033151;28;20498;-74
2023/09/09 05:23:35;;;;;;;15.52;13.68;;;;;;;19.29;100.00;101624.19;5032558;28;20026;-75
2023/09/09 05:26:01;;;;;;;14.57;13.00;;;;;;;19.30;100.00;101623.13;5016753;28;20542;-75
2023/09/09 05:28:26;;;;;;;15.57;13.77;;;;;;;19.43;100.00;101620.97;5033178;28;20037;-74
2023/09/09 05:30:52;;;;;;;17.60;12.60;;;;;;;19.50;100.00;101626.31;5017489;28;20033;-75
2023/09/09 05:33:18;;;;;;;15.70;13.38;;;;;;;19.60;100.00;101628.44;5034755;28;20473;-74
2023/09/09 05:35:43;;;;;;;15.55;13.10;;;;;;;19.67;100.00;101623.75;5033332;28;20048;-75
2023/09/09 05:38:09;;;;;;;15.10;12.40;;;;;;;19.70;100.00;101617.78;5033727;28;20041;-75
2023/09/09 05:40:34;;;;;;;13.25;11.93;;;;;;;19.82;100.00;101620.50;5033851;28;20040;-75
2023/09/09 05:42:59;;;;;;;13.60;12.05;;;;;;;19.82;100.00;101609.56;5032457;28;20033;-74
2023/09/09 05:45:25;;;;;;;13.35;11.98;;;;;;;19.91;100.00;101613.59;5035107;28;20032;-75
2023/09/09 05:47:50;;;;;;;17.23;12.75;;;;;;;20.06;100.00;101616.63;5032371;28;20502;-74
2023/09/09 05:50:16;;;;;;;14.38;12.20;;;;;;;20.16;100.00;101624.19;5032302;28;20499;-75
2023/09/09 05:52:42;;;;;;;13.00;11.70;;;;;;;20.31;100.00;101626.41;5032544;28;20063;-75
2023/09/09 05:55:08;;;;;;;14.95;12.23;;;;;;;20.45;100.00;101626.94;5033984;28;20036;-75
2023/09/09 05:57:34;;;;;;;13.13;11.63;;;;;;;20.55;100.00;101627.97;5032464;28;20030;-75
2023/09/09 06:00:00;;;;;;;13.50;11.70;;;;;;;20.64;100.00;101631.97;5016297;28;20033;-74
2023/09/09 06:02:25;;;;;;;14.35;12.02;;;;;;;20.67;100.00;101625.19;5033776;28;20020;-75
2023/09/09 06:04:51;;;;;;;16.25;12.00;;;;;;;20.69;100.00;101625.75;5032727;28;20030;-75
2023/09/09 06:07:18;;;;;;;15.13;11.57;;;;;;;20.73;100.00;101628.81;5015957;28;20025;-75
2023/09/09 06:09:43;;;;;;;14.35;11.50;;;;;;;20.65;100.00;101609.00;5015900;28;20018;-75
2023/09/09 06:12:09;;;;;;;14.27;11.23;;;;;;;20.74;100.00;101622.28;5015754;28;20040;-74
2023/09/09 06:14:34;;;;;;;14.82;11.40;;;;;;;20.57;100.00;101605.88;5015798;28;20029;-75
2023/09/09 06:17:00;;;;;;;12.95;11.35;;;;;;;20.76;100.00;101620.97;5015616;28;20033;-75
2023/09/09 06:19:25;;;;;;;15.85;10.77;;;;;;;20.75;100.00;101613.81;5031369;28;20136;-75
2023/09/09 06:21:51;;;;;;;16.23;11.45;;;;;;;20.83;100.00;101605.22;5031477;28;20120;-75
2023/09/09 06:24:16;;;;;;;11.38;10.18;;;;;;;20.93;100.00;101610.03;5015612;28;20392;-74
2023/09/09 06:26:43;;;;;;;15.18;10.27;;;;;;;21.03;100.00;101603.91;5032430;28;20095;-75
2023/09/09 06:29:08;;;;;;;14.60;9.93;;;;;;;21.13;100.00;101604.06;5031778;28;20030;-75
2023/09/09 06:31:33;;;;;;;14.05;9.75;;;;;;;21.28;100.00;101593.31;5032065;28;20483;-75
2023/09/09 06:33:59;;;;;;;14.25;9.63;;;;;;;21.25;100.00;101566.44;5032849;28;20061;-75
2023/09/09 06:36:24;;;;;;;11.68;9.50;;;;;;;21.67;100.00;101598.84;5031708;28;20080;-75
2023/09/09 06:38:50;;;;;;;12.65;8.65;;;;;;;21.72;100.00;101577.00;5015152;28;20398;-75
2023/09/09 06:41:16;;;;;;;12.60;8.73;;;;;;;21.84;100.00;101597.94;5031631;28;20091;-75
2023/09/09 06:43:44;;;;;;;11.88;7.97;;;;;;;21.86;100.00;101598.53;5031707;28;20032;-75
2023/09/09 06:46:10;;;;;;;9.20;8.10;;;;;;;21.83;100.00;101596.31;5032872;28;20478;-75
2023/09/09 06:48:35;;;;;;;10.32;7.78;;;;;;;21.83;100.00;101597.13;5031573;28;20120;-75
2023/09/09 06:51:01;;;;;;;8.38;7.50;;;;;;;21.87;100.00;101602.91;5031628;28;20055;-75
2023/09/09 06:53:27;;;;;;;8.65;7.65;;;;;;;21.94;100.00;101603.53;5031728;28;20056;-75
2023/09/09 06:55:52;;;;;;;9.70;7.93;;;;;;;22.00;100.00;101600.63;5031658;28;20531;-75
2023/09/09 06:58:18;;;;;;;13.32;8.07;;;;;;;22.01;100.00;101583.06;5031562;28;20037;-75
2023/09/09 07:00:51;;;;;;;10.75;7.25;;;;;;;22.20;100.00;101601.97;5032870;28;20065;-75
2023/09/09 07:03:18;;;;;;;10.25;7.63;;;;;;;22.21;100.00;101589.91;5031443;28;20025;-75
2023/09/09 07:05:43;;;;;;;9.02;7.28;;;;;;;22.36;100.00;101601.03;5032676;28;20098;-75
2023/09/09 07:08:09;;;;;;;13.23;7.55;;;;;;;22.40;100.00;101602.16;5032830;28;20038;-75
2023/09/09 07:10:34;;;;;;;9.85;7.20;;;;;;;22.35;100.00;101599.41;5037903;28;20476;-75
2023/09/09 07:13:00;;;;;;;8.20;7.18;;;;;;;22.40;100.00;101604.09;5032233;28;20187;-75
2023/09/09 07:15:25;;;;;;;7.38;6.60;;;;;;;22.40;99.65;101596.69;5032110;28;20506;-75
2023/09/09 07:17:51;;;;;;;12.88;7.20;;;;;;;22.44;99.42;101597.81;5030656;28;20044;-75
2023/09/09 07:20:16;;;;;;;9.40;6.97;;;;;;;22.55;98.98;101604.25;5031759;28;20026;-75
2023/09/09 07:22:42;;;;;;;10.68;6.80;;;;;;;22.54;98.49;101596.25;5001467;28;20025;-75
2023/09/09 07:25:08;;;;;;;8.65;6.40;;;;;;;22.47;98.03;101580.84;5030915;28;20087;-75
2023/09/09 07:27:34;;;;;;;10.50;7.40;;;;;;;22.63;97.74;101600.19;5031852;28;20033;-75
2023/09/09 07:29:59;;;;;;;10.13;6.90;;;;;;;22.73;97.25;101600.28;5031310;28;20029;-75
2023/09/09 07:32:25;;;;;;;8.77;7.35;;;;;;;22.77;96.72;101598.66;5031155;28;20066;-75
2023/09/09 07:34:51;;;;;;;10.88;7.00;;;;;;;22.88;95.79;101602.31;5031137;28;20065;-75
2023/09/09 07:37:17;;;;;;;9.15;7.25;;;;;;;22.98;95.19;101607.94;5030916;28;20120;-75
2023/09/09 07:39:45;;;;;;;9.15;7.03;;;;;;;23.07;94.62;101608.28;5031505;28;20029;-75
2023/09/09 07:42:13;;;;;;;12.55;6.90;;;;;;;23.10;94.54;101605.81;5032277;28;20064;-75
2023/09/09 07:44:38;;;;;;;7.70;6.97;;;;;;;23.18;94.09;101610.00;5031110;28;20033;-75
2023/09/09 07:47:06;;;;;;;10.43;6.90;;;;;;;23.23;93.44;101604.53;5014261;28;20373;-75
2023/09/09 07:49:33;;;;;;;7.68;6.97;;;;;;;23.31;93.05;101606.81;5032421;28;20488;-75
2023/09/09 07:51:59;;;;;;;8.60;6.72;;;;;;;23.38;93.42;101601.91;5014424;28;20081;-75
2023/09/09 07:54:26;;;;;;;8.80;7.00;;;;;;;23.45;92.84;101605.22;5014507;28;20061;-74
2023/09/09 07:56:51;;;;;;;7.45;6.75;;;;;;;23.51;92.47;101606.09;5031171;28;20453;-75
2023/09/09 07:59:16;;;;;;;13.50;6.72;;;;;;;23.38;92.42;101592.84;4999844;28;20048;-75
2023/09/09 08:01:43;;;;;;;8.18;6.63;;;;;;;23.50;92.27;101598.09;5033897;28;20396;-75
2023/09/09 08:04:09;;;;;;;8.00;6.53;;;;;;;23.57;91.96;101601.44;5014941;28;20033;-75
2023/09/09 08:06:34;;;;;;;8.95;6.63;;;;;;;23.40;91.56;101568.66;5030570;28;20029;-75
2023/09/09 08:09:00;;;;;;;8.15;6.78;;;;;;;23.63;91.16;101600.38;5030671;28;20107;-75
2023/09/09 08:11:25;;;;;;;7.40;6.65;;;;;;;23.53;90.89;101589.34;5032115;28;20033;-75
2023/09/09 08:13:51;;;;;;;9.48;6.63;;;;;;;23.62;90.75;101601.47;5032381;28;20125;-75
2023/09/09 08:16:16;;;;;;;7.50;6.53;;;;;;;23.66;90.76;101599.84;5034888;28;20121;-75
2023/09/09 08:18:41;;;;;;;11.00;6.60;;;;;;;23.65;90.57;101600.94;5038913;28;20037;-75
2023/09/09 08:21:08;;;;;;;7.20;6.40;;;;;;;23.67;90.27;101610.59;5043051;28;20099;-75
2023/09/09 08:23:34;;;;;;;8.70;6.50;;;;;;;23.74;89.98;101609.50;5033988;28;20021;-75
2023/09/09 08:25:59;;;;;;;8.68;6.70;;;;;;;23.78;89.73;101611.47;5031434;28;20048;-75
2023/09/09 08:28:25;;;;;;;10.05;7.00;;;;;;;23.80;90.18;101612.03;5030556;28;20033;-75
2023/09/09 08:31:05;;;;;;;8.30;6.90;;;;;;;23.74;89.37;101601.28;5013810;28;20435;-75
2023/09/09 08:33:33;;;;;;;7.20;6.50;;;;;;;23.78;89.99;101605.97;5031534;28;20054;-75
2023/09/09 08:35:59;;;;;;;7.35;6.15;;;;;;;23.90;89.67;101609.31;5017939;28;20042;-75
2023/09/09 08:38:25;;;;;;;7.13;6.43;;;;;;;23.99;89.19;101609.63;5031839;28;20384;-75
2023/09/09 08:41:32;;;;;;;8.02;6.70;;;;;;;24.10;88.58;101604.97;5032250;28;20033;-75
2023/09/09 08:44:11;;;;;;;9.38;6.22;;;;;;;24.26;88.23;101606.69;5032524;28;20075;-75
2023/09/09 08:46:37;;;;;;;11.32;6.68;;;;;;;24.37;87.60;101602.00;5034268;28;20584;-75
2023/09/09 08:49:06;;;;;;;7.43;6.57;;;;;;;24.47;87.10;101595.75;5018103;28;20124;-75
2023/09/09 08:51:37;;;;;;;9.85;6.65;;;;;;;24.67;86.45;101605.94;5034198;28;20512;-75
2023/09/09 08:54:06;;;;;;;8.38;6.60;;;;;;;24.73;85.69;101608.41;5035454;28;20400;-75
2023/09/09 08:56:32;;;;;;;10.10;6.43;;;;;;;24.81;85.30;101588.63;5035816;28;20415;-75
2023/09/09 08:58:58;;;;;;;9.43;6.65;;;;;;;25.03;84.40;101615.03;5035836;28;20025;-75
2023/09/09 09:01:26;;;;;;;10.57;6.45;;;;;;;25.02;83.95;101613.38;5034958;28;20086;-75
2023/09/09 09:03:53;;;;;;;9.55;6.93;;;;;;;25.05;83.70;101613.66;5037015;28;20024;-75
2023/09/09 09:06:19;;;;;;;10.13;6.97;;;;;;;25.09;83.87;101608.41;5035006;28;20478;-75
2023/09/09 09:08:44;;;;;;;9.52;7.68;;;;;;;25.12;83.41;101616.16;5018340;28;20124;-75
2023/09/09 09:11:13;;;;;;;11.55;7.43;;;;;;;25.09;83.19;101617.50;5038097;28;20025;-75
2023/09/09 09:13:38;;;;;;;12.27;7.72;;;;;;;25.10;82.59;101610.09;5036315;28;20437;-75
2023/09/09 09:16:04;;;;;;;11.20;7.97;;;;;;;25.14;82.61;101616.72;5035401;28;20127;-75
2023/09/09 09:18:29;;;;;;;10.95;7.75;;;;;;;25.21;82.50;101614.50;5034032;28;20053;-75
2023/09/09 09:21:06;;;;;;;9.13;7.68;;;;;;;25.39;82.20;101612.25;5035037;28;20065;-75
2023/09/09 09:23:32;;;;;;;12.88;7.65;;;;;;;25.53;81.79;101611.41;5035880;28;20022;-75
2023/09/09 09:25:57;;;;;;;13.25;7.10;;;;;;;25.64;81.35;101609.44;5036330;28;20036;-75
2023/09/09 09:28:27;;;;;;;12.10;7.68;;;;;;;25.74;80.80;101606.63;5018131;28;20087;-75
2023/09/09 09:30:53;;;;;;;13.27;7.00;;;;;;;25.85;80.51;101609.38;5034798;28;20079;-75
2023/09/09 09:33:27;;;;;;;8.90;7.00;;;;;;;25.92;80.61;101609.91;5036174;28;20231;-74
2023/09/09 09:35:53;;;;;;;7.97;6.60;;;;;;;25.91;79.83;101602.75;5035358;28;20109;-75
2023/09/09 09:38:19;;;;;;;10.50;7.40;;;;;;;25.93;79.34;101603.28;5035628;28;20037;-75
2023/09/09 09:40:44;;;;;;;9.52;7.20;;;;;;;26.10;78.61;101603.75;5017609;28;20388;-75
2023/09/09 09:43:18;;;;;;;8.80;7.40;;;;;;;26.16;77.90;101599.03;5033877;28;20391;-75
2023/09/09 09:45:43;;;;;;;9.35;6.82;;;;;;;26.07;77.56;101565.69;5035722;28;20036;-75
2023/09/09 09:48:09;;;;;;;11.48;7.70;;;;;;;26.24;76.96;101590.97;5035137;28;20038;-75
2023/09/09 09:50:35;;;;;;;10.65;7.05;;;;;;;26.32;76.73;101589.53;5033784;28;20029;-75
2023/09/09 09:53:05;;;;;;;12.60;7.18;;;;;;;26.26;76.38;101585.19;5032831;28;20029;-75
2023/09/09 09:55:33;;;;;;;9.73;7.13;;;;;;;26.44;76.65;101589.19;5033664;28;20553;-75
2023/09/09 09:58:04;;;;;;;10.75;6.60;;;;;;;26.58;76.44;101583.88;5035195;28;20033;-75
2023/09/09 10:00:30;;;;;;;8.77;6.68;;;;;;;26.66;76.05;101591.53;5032843;28;20056;-75
2023/09/09 10:02:57;;;;;;;9.95;6.65;;;;;;;26.69;74.83;101589.03;5034574;28;20033;-75
2023/09/09 10:05:28;;;;;;;7.32;6.63;;;;;;;26.76;74.63;101594.22;5034819;28;20454;-75
2023/09/09 10:07:56;;;;;;;9.85;6.30;;;;;;;26.71;74.49;101588.72;5033794;28;20071;-74
2023/09/09 10:10:24;;;;;;;10.10;6.70;;;;;;;26.56;74.35;101578.66;5034880;28;20112;-75
2023/09/09 10:13:22;;;;;;;8.40;6.40;;;;;;;26.79;73.80;101590.03;5048763;28;20029;-75
2023/09/09 10:15:49;;;;;;;8.82;5.93;;;;;;;26.83;73.00;101593.88;5052354;28;20493;-74
2023/09/09 10:18:16;;;;;;;8.43;6.00;;;;;;;26.90;72.26;101591.59;5035902;28;20029;-75
2023/09/09 10:20:42;;;;;;;7.35;5.82;;;;;;;26.89;71.71;101590.78;5038879;28;20107;-75
2023/09/09 10:23:08;;;;;;;8.20;6.32;;;;;;;26.88;71.49;101572.56;5036281;28;20480;-75
2023/09/09 10:25:34;;;;;;;9.63;5.90;;;;;;;27.07;71.13;101580.94;5037699;28;20126;-75
2023/09/09 10:28:01;;;;;;;7.20;6.03;;;;;;;27.21;70.25;101580.28;5037379;28;20025;-75
2023/09/09 10:30:27;;;;;;;8.25;6.03;;;;;;;27.21;69.92;101588.56;5035820;28;20101;-75
2023/09/09 10:32:55;;;;;;;9.48;5.85;;;;;;;27.25;69.85;101584.94;5002729;28;20456;-75
2023/09/09 10:35:21;;;;;;;7.05;6.18;;;;;;;27.43;69.14;101588.06;5036487;28;20029;-75
2023/09/09 10:37:50;;;;;;;6.35;5.75;;;;;;;27.42;68.91;101590.00;5018619;28;20034;-75
2023/09/09 10:40:17;;;;;;;10.07;6.20;;;;;;;27.50;68.42;101594.88;5051972;28;20063;-76
2023/09/09 10:42:44;;;;;;;10.65;6.07;;;;;;;27.50;69.00;101581.06;5036107;28;20514;-75
2023/09/09 10:45:23;;;;;;;9.48;5.95;;;;;;;27.68;68.43;101578.63;5034571;28;20070;-75
2023/09/09 10:47:54;;;;;;;6.88;5.68;;;;;;;27.69;68.27;101563.72;5035493;28;20033;-75
2023/09/09 10:50:20;;;;;;;9.27;6.10;;;;;;;27.77;67.21;101576.91;5035453;28;20033;-75
2023/09/09 10:52:45;;;;;;;8.30;5.80;;;;;;;27.67;66.77;101574.22;5034958;28;20055;-75
2023/09/09 10:55:14;;;;;;;10.55;5.97;;;;;;;27.64;66.43;101573.69;5034192;28;20399;-75
2023/09/09 10:57:40;;;;;;;8.13;6.15;;;;;;;27.62;66.04;101559.34;5033790;28;20550;-75
2023/09/09 11:00:06;;;;;;;8.43;6.00;;;;;;;27.62;65.87;101581.47;5018271;28;20041;-75
2023/09/09 11:02:45;;;;;;;7.47;5.82;;;;;;;27.54;66.04;101587.63;5036042;28;20021;-75
2023/09/09 11:05:12;;;;;;;9.45;6.20;;;;;;;27.49;67.04;101576.66;5035444;28;20029;-75